Gaithersburg, MD

2:33 PM EDT on March 28, 2015 (GMT -0400)
Montgomery County | | Change Station
CLOSE
Current Station
Airport
Location: Gaithersburg,
Elevation: 538 ft
Nearby Weather Stations

Elev 538 ft 39.17 °N, 77.16 °W | Updated 18 minutes ago

Overcast
Overcast
34 °F
Feels Like 22 °F
N
20
Wind Variable Wind from WNW
Gusts 26 mph

Today
High -- | Low -- °F
--% Chance of Precip.
Yesterday
High -- | Low -- °F
Precip. -- in
6:59 AM 7:28 PM
Waxing Gibbous, 64% visible
Pressure 30.04 in
Visibility 10.0 miles
Clouds Overcast 6000 ft
Windchill 22 °F
Dew Point 12 °F
Humidity 41%
Rainfall 0.00 in
Snow Depth Not available.
UV 2 out of 12
Pollen 7.40 out of 12
Air Quality Not available.
Flu Activity Not available.
METAR KGAI 281815Z AUTO 30017G23KT 10SM OVC060 01/M11 A3004 RMK AO1

More Conditions Fewer Conditions

Pressure 30.04 in
Visibility 10.0 miles
Clouds Overcast 6000 ft
Windchill 22 °F
Dew Point 12 °F
Humidity 41%
Rainfall 0.00 in
Snow Depth Not available.
UV 2 out of 12
Pollen 7.40 out of 12
Air Quality Not available.
Flu Activity Not available.
METAR KGAI 281815Z AUTO 30017G23KT 10SM OVC060 01/M11 A3004 RMK AO1

More Conditions Fewer Conditions

10-Day Weather Forecast

Almanac

Astronomy

Mar. 28, 2015 Rise Set
Actual Time
Civil Twilight
Nautical Twilight
Astronomical Twilight
Moon
Length of Visible Light
Length of Day
Tomorrow will be .
, % of the Moon is Illuminated

Today's Extremes

State Highs State Lows

Community

WunderPhotos

Upload Photos

1,809,055 photos uploaded!

WunderBlogs® & News

Nearby

Air Quality

  Air Quality AQ Index Pollutant
Not available.

Snow Depth

Station Depth Elevation

Earthquake Activity

City Distance Mag. Time & Date
Minimum magnitude displayed is 2.5.

Coastal Water Temperatures

Place Temperature

Stations

Nearby Weather Stations

Station Location Temp. Windchill Dew Point Humidity Wind Precip. Elev Updated Type